Yarmouth, Canada
Current Conditions -  °F | °C
As of 6:00 AM on Wednesday 26 Nov 2014 (Local Time) from CYQI Reporting Station
Overcast Overcast  
Wind Chill: 44°   Ceiling: 10000
Heat Index: 46°   Visibility: 12mi
Dew Point: 36°   Wind: 6mph
Humidity: 66%   Direction: 320°NW
Pressure: 30.16"   Gusts: NA
Location:  43.84°N, 66.12°W
Report Text: CYQI 261000Z 32005KT 12SM OVC100 08/02 A3016 RMK AC8 SLP212
Loading
Personal Weather Stations






























Interactive Weather Map New forecast layout! Learn more

10-Day Weather Forecast

Advertisements
Track Severe Weather on mobile